sensor_id;sensor_type;location;lat;lon;timestamp;temperature;humidity
51739;DHT22;37815;52.692;6.226;2023-09-19T00:01:35;20.60;95.20
51739;DHT22;37815;52.692;6.226;2023-09-19T00:06:36;20.50;95.20
51739;DHT22;37815;52.692;6.226;2023-09-19T00:11:37;20.50;95.20
51739;DHT22;37815;52.692;6.226;2023-09-19T00:16:38;20.50;95.20
51739;DHT22;37815;52.692;6.226;2023-09-19T00:21:40;20.50;95.10
51739;DHT22;37815;52.692;6.226;2023-09-19T00:26:42;20.40;95.10
51739;DHT22;37815;52.692;6.226;2023-09-19T00:31:44;20.40;95.00
51739;DHT22;37815;52.692;6.226;2023-09-19T00:36:44;20.40;95.00
51739;DHT22;37815;52.692;6.226;2023-09-19T00:41:45;20.30;94.90
51739;DHT22;37815;52.692;6.226;2023-09-19T00:46:46;20.30;94.90
51739;DHT22;37815;52.692;6.226;2023-09-19T00:51:49;20.30;95.00
51739;DHT22;37815;52.692;6.226;2023-09-19T00:56:50;20.30;94.90
51739;DHT22;37815;52.692;6.226;2023-09-19T01:01:54;20.30;94.90
51739;DHT22;37815;52.692;6.226;2023-09-19T01:06:56;20.20;94.90
51739;DHT22;37815;52.692;6.226;2023-09-19T01:12:02;20.20;94.80
51739;DHT22;37815;52.692;6.226;2023-09-19T01:17:09;20.20;94.90
51739;DHT22;37815;52.692;6.226;2023-09-19T01:22:38;20.20;94.80
51739;DHT22;37815;52.692;6.226;2023-09-19T01:33:01;20.10;94.80
51739;DHT22;37815;52.692;6.226;2023-09-19T01:38:03;20.10;94.70
51739;DHT22;37815;52.692;6.226;2023-09-19T01:43:20;20.10;94.70
51739;DHT22;37815;52.692;6.226;2023-09-19T01:53:57;20.00;94.70
51739;DHT22;37815;52.692;6.226;2023-09-19T01:59:10;20.00;94.70
51739;DHT22;37815;52.692;6.226;2023-09-19T02:04:12;20.00;94.70
51739;DHT22;37815;52.692;6.226;2023-09-19T02:09:13;19.90;94.60
51739;DHT22;37815;52.692;6.226;2023-09-19T02:14:14;19.90;94.70
51739;DHT22;37815;52.692;6.226;2023-09-19T02:19:15;19.90;94.60
51739;DHT22;37815;52.692;6.226;2023-09-19T02:24:16;19.90;94.70
51739;DHT22;37815;52.692;6.226;2023-09-19T02:29:16;19.80;94.60
51739;DHT22;37815;52.692;6.226;2023-09-19T02:34:17;19.80;94.60
51739;DHT22;37815;52.692;6.226;2023-09-19T02:39:18;19.80;94.60
51739;DHT22;37815;52.692;6.226;2023-09-19T02:44:18;19.80;94.60
51739;DHT22;37815;52.692;6.226;2023-09-19T02:49:20;19.70;94.60
51739;DHT22;37815;52.692;6.226;2023-09-19T02:54:21;19.70;94.60
51739;DHT22;37815;52.692;6.226;2023-09-19T02:59:22;19.70;94.50
51739;DHT22;37815;52.692;6.226;2023-09-19T03:04:23;19.70;94.50
51739;DHT22;37815;52.692;6.226;2023-09-19T03:09:23;19.70;94.50
51739;DHT22;37815;52.692;6.226;2023-09-19T03:14:24;19.70;94.50
51739;DHT22;37815;52.692;6.226;2023-09-19T03:19:25;19.70;94.50
51739;DHT22;37815;52.692;6.226;2023-09-19T03:24:26;19.60;94.40
51739;DHT22;37815;52.692;6.226;2023-09-19T03:29:27;19.60;94.40
51739;DHT22;37815;52.692;6.226;2023-09-19T03:34:28;19.60;94.40
51739;DHT22;37815;52.692;6.226;2023-09-19T03:39:29;19.50;94.30
51739;DHT22;37815;52.692;6.226;2023-09-19T03:44:30;19.50;94.30
51739;DHT22;37815;52.692;6.226;2023-09-19T03:49:31;19.50;94.30
51739;DHT22;37815;52.692;6.226;2023-09-19T03:54:31;19.50;94.30
51739;DHT22;37815;52.692;6.226;2023-09-19T03:59:32;19.50;94.30
51739;DHT22;37815;52.692;6.226;2023-09-19T04:04:32;19.90;94.40
51739;DHT22;37815;52.692;6.226;2023-09-19T04:09:33;19.50;94.30
51739;DHT22;37815;52.692;6.226;2023-09-19T04:14:34;19.50;94.30
51739;DHT22;37815;52.692;6.226;2023-09-19T04:19:34;19.70;94.30
51739;DHT22;37815;52.692;6.226;2023-09-19T04:24:36;19.40;94.30
51739;DHT22;37815;52.692;6.226;2023-09-19T04:29:38;19.40;94.30
51739;DHT22;37815;52.692;6.226;2023-09-19T04:34:39;19.40;94.20
51739;DHT22;37815;52.692;6.226;2023-09-19T04:39:40;19.40;94.30
51739;DHT22;37815;52.692;6.226;2023-09-19T04:44:41;19.30;94.20
51739;DHT22;37815;52.692;6.226;2023-09-19T04:49:42;19.30;94.20
51739;DHT22;37815;52.692;6.226;2023-09-19T04:54:43;19.30;94.20
51739;DHT22;37815;52.692;6.226;2023-09-19T04:59:43;19.30;94.20
51739;DHT22;37815;52.692;6.226;2023-09-19T05:04:44;19.30;94.20
51739;DHT22;37815;52.692;6.226;2023-09-19T05:09:45;19.30;94.30
51739;DHT22;37815;52.692;6.226;2023-09-19T05:14:46;19.30;94.20
51739;DHT22;37815;52.692;6.226;2023-09-19T05:19:47;19.20;94.10
51739;DHT22;37815;52.692;6.226;2023-09-19T05:24:47;19.20;94.10
51739;DHT22;37815;52.692;6.226;2023-09-19T05:29:51;19.20;94.10
51739;DHT22;37815;52.692;6.226;2023-09-19T05:34:53;19.20;94.10
51739;DHT22;37815;52.692;6.226;2023-09-19T05:39:56;19.20;94.00
51739;DHT22;37815;52.692;6.226;2023-09-19T05:44:57;19.10;94.00
51739;DHT22;37815;52.692;6.226;2023-09-19T05:49:58;19.20;94.00
51739;DHT22;37815;52.692;6.226;2023-09-19T05:55:00;19.10;94.00
51739;DHT22;37815;52.692;6.226;2023-09-19T06:00:00;19.10;93.90
51739;DHT22;37815;52.692;6.226;2023-09-19T06:05:01;19.10;93.80
51739;DHT22;37815;52.692;6.226;2023-09-19T06:10:05;19.10;93.80
51739;DHT22;37815;52.692;6.226;2023-09-19T06:15:07;19.10;93.80
51739;DHT22;37815;52.692;6.226;2023-09-19T06:20:15;19.10;93.80
51739;DHT22;37815;52.692;6.226;2023-09-19T06:25:17;19.10;93.80
51739;DHT22;37815;52.692;6.226;2023-09-19T06:30:22;19.10;93.80
51739;DHT22;37815;52.692;6.226;2023-09-19T06:35:27;19.00;93.60
51739;DHT22;37815;52.692;6.226;2023-09-19T06:40:29;19.00;93.70
51739;DHT22;37815;52.692;6.226;2023-09-19T06:45:31;19.00;93.70
51739;DHT22;37815;52.692;6.226;2023-09-19T06:50:32;19.00;93.70
51739;DHT22;37815;52.692;6.226;2023-09-19T06:55:37;19.00;93.70
51739;DHT22;37815;52.692;6.226;2023-09-19T07:00:38;19.00;93.60
51739;DHT22;37815;52.692;6.226;2023-09-19T07:05:39;19.10;93.50
51739;DHT22;37815;52.692;6.226;2023-09-19T07:10:42;19.10;93.60
51739;DHT22;37815;52.692;6.226;2023-09-19T07:15:48;19.10;93.70
51739;DHT22;37815;52.692;6.226;2023-09-19T07:20:50;19.00;92.60
51739;DHT22;37815;52.692;6.226;2023-09-19T07:25:51;18.70;92.50
51739;DHT22;37815;52.692;6.226;2023-09-19T07:30:51;18.40;93.20
51739;DHT22;37815;52.692;6.226;2023-09-19T07:35:53;18.50;93.30
51739;DHT22;37815;52.692;6.226;2023-09-19T07:40:59;18.60;93.40
51739;DHT22;37815;52.692;6.226;2023-09-19T07:46:06;18.70;93.30
51739;DHT22;37815;52.692;6.226;2023-09-19T07:51:08;18.80;93.40
51739;DHT22;37815;52.692;6.226;2023-09-19T07:56:10;18.80;93.30
51739;DHT22;37815;52.692;6.226;2023-09-19T08:01:10;18.90;93.30
51739;DHT22;37815;52.692;6.226;2023-09-19T08:06:13;18.90;93.30
51739;DHT22;37815;52.692;6.226;2023-09-19T08:11:14;18.90;93.30
51739;DHT22;37815;52.692;6.226;2023-09-19T08:16:21;19.00;93.30
51739;DHT22;37815;52.692;6.226;2023-09-19T08:21:23;19.00;93.30
51739;DHT22;37815;52.692;6.226;2023-09-19T08:26:24;19.00;93.40
51739;DHT22;37815;52.692;6.226;2023-09-19T08:31:25;19.00;93.50
51739;DHT22;37815;52.692;6.226;2023-09-19T08:36:26;19.00;93.40
51739;DHT22;37815;52.692;6.226;2023-09-19T08:41:27;19.10;93.40
51739;DHT22;37815;52.692;6.226;2023-09-19T08:46:30;19.10;93.40
51739;DHT22;37815;52.692;6.226;2023-09-19T08:51:45;19.10;93.50
51739;DHT22;37815;52.692;6.226;2023-09-19T08:56:47;19.10;93.50
51739;DHT22;37815;52.692;6.226;2023-09-19T09:01:48;19.10;93.40
51739;DHT22;37815;52.692;6.226;2023-09-19T09:06:51;19.20;93.50
51739;DHT22;37815;52.692;6.226;2023-09-19T09:11:54;19.20;93.40
51739;DHT22;37815;52.692;6.226;2023-09-19T09:16:57;19.30;93.50
51739;DHT22;37815;52.692;6.226;2023-09-19T09:22:09;19.30;93.40
51739;DHT22;37815;52.692;6.226;2023-09-19T09:27:12;19.40;93.30
51739;DHT22;37815;52.692;6.226;2023-09-19T09:37:25;19.50;93.30
51739;DHT22;37815;52.692;6.226;2023-09-19T09:42:32;19.50;93.30
51739;DHT22;37815;52.692;6.226;2023-09-19T09:47:47;19.50;93.20
51739;DHT22;37815;52.692;6.226;2023-09-19T09:52:56;19.50;93.20
51739;DHT22;37815;52.692;6.226;2023-09-19T09:58:16;19.50;93.20
51739;DHT22;37815;52.692;6.226;2023-09-19T10:03:21;19.60;93.10
51739;DHT22;37815;52.692;6.226;2023-09-19T10:08:23;19.60;93.10
51739;DHT22;37815;52.692;6.226;2023-09-19T10:13:25;19.60;93.10
51739;DHT22;37815;52.692;6.226;2023-09-19T10:18:31;19.60;93.10
51739;DHT22;37815;52.692;6.226;2023-09-19T10:23:38;19.70;93.10
51739;DHT22;37815;52.692;6.226;2023-09-19T10:28:40;19.70;93.00
51739;DHT22;37815;52.692;6.226;2023-09-19T10:33:43;19.70;93.30
51739;DHT22;37815;52.692;6.226;2023-09-19T10:38:45;19.70;92.90
51739;DHT22;37815;52.692;6.226;2023-09-19T10:43:48;19.80;92.90
51739;DHT22;37815;52.692;6.226;2023-09-19T10:48:51;19.80;92.90
51739;DHT22;37815;52.692;6.226;2023-09-19T10:53:59;19.80;92.90
51739;DHT22;37815;52.692;6.226;2023-09-19T10:59:08;19.80;92.80
51739;DHT22;37815;52.692;6.226;2023-09-19T11:09:55;19.90;92.70
51739;DHT22;37815;52.692;6.226;2023-09-19T11:14:59;19.90;92.60
51739;DHT22;37815;52.692;6.226;2023-09-19T11:30:30;20.50;92.80
51739;DHT22;37815;52.692;6.226;2023-09-19T11:36:00;20.00;92.70
51739;DHT22;37815;52.692;6.226;2023-09-19T11:41:37;20.00;92.70
51739;DHT22;37815;52.692;6.226;2023-09-19T11:46:54;20.00;92.70
51739;DHT22;37815;52.692;6.226;2023-09-19T11:51:58;20.00;92.70
51739;DHT22;37815;52.692;6.226;2023-09-19T11:57:01;20.00;92.60
51739;DHT22;37815;52.692;6.226;2023-09-19T12:02:07;20.00;92.60
51739;DHT22;37815;52.692;6.226;2023-09-19T12:07:10;20.00;92.60
51739;DHT22;37815;52.692;6.226;2023-09-19T12:12:26;20.00;92.60
51739;DHT22;37815;52.692;6.226;2023-09-19T12:17:40;20.00;92.40
51739;DHT22;37815;52.692;6.226;2023-09-19T12:22:44;20.00;92.60
51739;DHT22;37815;52.692;6.226;2023-09-19T12:27:48;20.00;92.50
51739;DHT22;37815;52.692;6.226;2023-09-19T12:32:49;20.10;92.50
51739;DHT22;37815;52.692;6.226;2023-09-19T12:37:53;20.10;92.60
51739;DHT22;37815;52.692;6.226;2023-09-19T12:42:56;20.10;92.60
51739;DHT22;37815;52.692;6.226;2023-09-19T12:48:22;20.10;92.70
51739;DHT22;37815;52.692;6.226;2023-09-19T12:53:29;20.10;92.70
51739;DHT22;37815;52.692;6.226;2023-09-19T12:58:31;20.10;92.90
51739;DHT22;37815;52.692;6.226;2023-09-19T13:03:33;20.00;92.90
51739;DHT22;37815;52.692;6.226;2023-09-19T13:08:46;20.00;92.80
51739;DHT22;37815;52.692;6.226;2023-09-19T13:19:35;20.00;93.00
51739;DHT22;37815;52.692;6.226;2023-09-19T13:24:35;20.00;93.00
51739;DHT22;37815;52.692;6.226;2023-09-19T13:29:40;20.00;93.10
51739;DHT22;37815;52.692;6.226;2023-09-19T13:34:41;20.00;93.20
51739;DHT22;37815;52.692;6.226;2023-09-19T13:39:41;20.00;93.40
51739;DHT22;37815;52.692;6.226;2023-09-19T13:44:47;20.00;93.30
51739;DHT22;37815;52.692;6.226;2023-09-19T13:49:48;20.00;93.40
51739;DHT22;37815;52.692;6.226;2023-09-19T13:54:51;20.00;93.40
51739;DHT22;37815;52.692;6.226;2023-09-19T13:59:52;20.10;93.40
51739;DHT22;37815;52.692;6.226;2023-09-19T14:04:54;20.10;93.20
51739;DHT22;37815;52.692;6.226;2023-09-19T14:09:55;20.20;93.20
51739;DHT22;37815;52.692;6.226;2023-09-19T14:14:56;20.10;93.20
51739;DHT22;37815;52.692;6.226;2023-09-19T14:19:56;20.10;93.00
51739;DHT22;37815;52.692;6.226;2023-09-19T14:24:57;20.10;93.10
51739;DHT22;37815;52.692;6.226;2023-09-19T14:30:00;20.10;93.20
51739;DHT22;37815;52.692;6.226;2023-09-19T14:35:00;20.10;93.30
51739;DHT22;37815;52.692;6.226;2023-09-19T14:40:01;20.10;93.30
51739;DHT22;37815;52.692;6.226;2023-09-19T14:45:08;20.10;93.30
51739;DHT22;37815;52.692;6.226;2023-09-19T14:50:10;20.10;93.30
51739;DHT22;37815;52.692;6.226;2023-09-19T14:55:12;20.10;93.40
51739;DHT22;37815;52.692;6.226;2023-09-19T15:00:14;20.10;93.40
51739;DHT22;37815;52.692;6.226;2023-09-19T15:05:17;20.10;93.20
51739;DHT22;37815;52.692;6.226;2023-09-19T15:10:17;20.10;93.30
51739;DHT22;37815;52.692;6.226;2023-09-19T15:15:19;20.10;93.30
51739;DHT22;37815;52.692;6.226;2023-09-19T15:20:19;20.10;93.40
51739;DHT22;37815;52.692;6.226;2023-09-19T15:25:20;20.10;93.40
51739;DHT22;37815;52.692;6.226;2023-09-19T15:30:21;20.10;93.30
51739;DHT22;37815;52.692;6.226;2023-09-19T15:35:21;20.10;93.30
51739;DHT22;37815;52.692;6.226;2023-09-19T15:40:22;20.10;93.40
51739;DHT22;37815;52.692;6.226;2023-09-19T15:45:26;20.10;93.40
51739;DHT22;37815;52.692;6.226;2023-09-19T15:50:27;20.10;93.30
51739;DHT22;37815;52.692;6.226;2023-09-19T15:55:27;20.10;93.30
51739;DHT22;37815;52.692;6.226;2023-09-19T16:00:28;20.10;93.40
51739;DHT22;37815;52.692;6.226;2023-09-19T16:05:36;20.10;93.40
51739;DHT22;37815;52.692;6.226;2023-09-19T16:10:37;20.10;93.50
51739;DHT22;37815;52.692;6.226;2023-09-19T16:15:42;20.10;93.60
51739;DHT22;37815;52.692;6.226;2023-09-19T16:20:44;20.00;93.70
51739;DHT22;37815;52.692;6.226;2023-09-19T16:25:46;20.00;93.90
51739;DHT22;37815;52.692;6.226;2023-09-19T16:30:47;20.00;93.90
51739;DHT22;37815;52.692;6.226;2023-09-19T16:35:48;20.00;94.00
51739;DHT22;37815;52.692;6.226;2023-09-19T16:40:58;20.00;94.00
51739;DHT22;37815;52.692;6.226;2023-09-19T16:46:04;20.00;94.00
51739;DHT22;37815;52.692;6.226;2023-09-19T16:51:08;20.00;94.30
51739;DHT22;37815;52.692;6.226;2023-09-19T16:56:10;20.00;94.10
51739;DHT22;37815;52.692;6.226;2023-09-19T17:01:13;20.00;94.10
51739;DHT22;37815;52.692;6.226;2023-09-19T17:06:14;20.00;94.10
51739;DHT22;37815;52.692;6.226;2023-09-19T17:11:17;20.00;94.20
51739;DHT22;37815;52.692;6.226;2023-09-19T17:16:19;20.00;94.20
51739;DHT22;37815;52.692;6.226;2023-09-19T17:21:24;20.00;94.20
51739;DHT22;37815;52.692;6.226;2023-09-19T17:26:25;19.90;94.30
51739;DHT22;37815;52.692;6.226;2023-09-19T17:31:26;19.90;94.30
51739;DHT22;37815;52.692;6.226;2023-09-19T17:36:28;19.90;94.20
51739;DHT22;37815;52.692;6.226;2023-09-19T17:41:32;19.90;94.30
51739;DHT22;37815;52.692;6.226;2023-09-19T17:46:33;19.90;94.30
51739;DHT22;37815;52.692;6.226;2023-09-19T17:51:36;19.90;94.30
51739;DHT22;37815;52.692;6.226;2023-09-19T17:56:37;19.90;94.30
51739;DHT22;37815;52.692;6.226;2023-09-19T18:01:40;19.90;94.50
51739;DHT22;37815;52.692;6.226;2023-09-19T18:06:42;19.90;94.40
51739;DHT22;37815;52.692;6.226;2023-09-19T18:11:43;19.90;94.50
51739;DHT22;37815;52.692;6.226;2023-09-19T18:16:44;19.90;94.50
51739;DHT22;37815;52.692;6.226;2023-09-19T18:21:44;19.90;94.60
51739;DHT22;37815;52.692;6.226;2023-09-19T18:26:46;19.90;94.60
51739;DHT22;37815;52.692;6.226;2023-09-19T18:31:47;19.80;94.60
51739;DHT22;37815;52.692;6.226;2023-09-19T18:36:47;19.80;94.60
51739;DHT22;37815;52.692;6.226;2023-09-19T18:41:50;19.80;94.70
51739;DHT22;37815;52.692;6.226;2023-09-19T18:46:51;19.80;94.70
51739;DHT22;37815;52.692;6.226;2023-09-19T18:51:51;19.80;94.70
51739;DHT22;37815;52.692;6.226;2023-09-19T18:56:53;19.80;94.70
51739;DHT22;37815;52.692;6.226;2023-09-19T19:01:53;19.80;94.80
51739;DHT22;37815;52.692;6.226;2023-09-19T19:06:54;19.80;94.80
51739;DHT22;37815;52.692;6.226;2023-09-19T19:11:54;19.80;94.90
51739;DHT22;37815;52.692;6.226;2023-09-19T19:16:55;19.80;95.00
51739;DHT22;37815;52.692;6.226;2023-09-19T19:21:59;19.70;95.00
51739;DHT22;37815;52.692;6.226;2023-09-19T19:26:59;19.70;95.00
51739;DHT22;37815;52.692;6.226;2023-09-19T19:32:00;19.70;95.00
51739;DHT22;37815;52.692;6.226;2023-09-19T19:37:01;19.70;95.00
51739;DHT22;37815;52.692;6.226;2023-09-19T19:42:03;19.70;95.00
51739;DHT22;37815;52.692;6.226;2023-09-19T19:47:05;19.70;95.10
51739;DHT22;37815;52.692;6.226;2023-09-19T19:52:06;19.70;95.10
51739;DHT22;37815;52.692;6.226;2023-09-19T19:57:07;18.70;94.90
51739;DHT22;37815;52.692;6.226;2023-09-19T20:02:07;19.70;95.20
51739;DHT22;37815;52.692;6.226;2023-09-19T20:07:08;19.70;95.30
51739;DHT22;37815;52.692;6.226;2023-09-19T20:12:10;19.70;95.30
51739;DHT22;37815;52.692;6.226;2023-09-19T20:17:11;19.70;95.20
51739;DHT22;37815;52.692;6.226;2023-09-19T20:22:12;19.70;95.20
51739;DHT22;37815;52.692;6.226;2023-09-19T20:27:13;19.70;95.20
51739;DHT22;37815;52.692;6.226;2023-09-19T20:32:14;19.60;95.20
51739;DHT22;37815;52.692;6.226;2023-09-19T20:37:14;19.70;95.20
51739;DHT22;37815;52.692;6.226;2023-09-19T20:42:16;19.60;95.20
51739;DHT22;37815;52.692;6.226;2023-09-19T20:47:16;19.70;95.20
51739;DHT22;37815;52.692;6.226;2023-09-19T20:52:17;19.70;95.20
51739;DHT22;37815;52.692;6.226;2023-09-19T20:57:18;19.60;95.20
51739;DHT22;37815;52.692;6.226;2023-09-19T21:02:18;19.60;95.20
51739;DHT22;37815;52.692;6.226;2023-09-19T21:07:19;19.70;95.30
51739;DHT22;37815;52.692;6.226;2023-09-19T21:12:19;19.70;95.30
51739;DHT22;37815;52.692;6.226;2023-09-19T21:17:20;19.60;95.30
51739;DHT22;37815;52.692;6.226;2023-09-19T21:22:21;19.60;95.30
51739;DHT22;37815;52.692;6.226;2023-09-19T21:27:21;19.60;95.30
51739;DHT22;37815;52.692;6.226;2023-09-19T21:32:22;19.60;95.30
51739;DHT22;37815;52.692;6.226;2023-09-19T21:37:23;19.60;95.30
51739;DHT22;37815;52.692;6.226;2023-09-19T21:42:24;19.60;95.30
51739;DHT22;37815;52.692;6.226;2023-09-19T21:47:24;19.60;95.30
51739;DHT22;37815;52.692;6.226;2023-09-19T21:52:25;19.60;95.30
51739;DHT22;37815;52.692;6.226;2023-09-19T21:57:25;19.60;95.40
51739;DHT22;37815;52.692;6.226;2023-09-19T22:02:26;19.60;95.40
51739;DHT22;37815;52.692;6.226;2023-09-19T22:07:27;19.60;95.40
51739;DHT22;37815;52.692;6.226;2023-09-19T22:12:28;19.60;95.40
51739;DHT22;37815;52.692;6.226;2023-09-19T22:17:30;19.60;95.40
51739;DHT22;37815;52.692;6.226;2023-09-19T22:22:32;19.60;95.40
51739;DHT22;37815;52.692;6.226;2023-09-19T22:27:32;19.50;95.40
51739;DHT22;37815;52.692;6.226;2023-09-19T22:32:34;19.50;95.40
51739;DHT22;37815;52.692;6.226;2023-09-19T22:37:35;19.60;95.50
51739;DHT22;37815;52.692;6.226;2023-09-19T22:42:37;19.50;95.40
51739;DHT22;37815;52.692;6.226;2023-09-19T22:47:41;19.50;95.40
51739;DHT22;37815;52.692;6.226;2023-09-19T22:52:44;19.60;95.40
51739;DHT22;37815;52.692;6.226;2023-09-19T22:57:48;19.50;95.40
51739;DHT22;37815;52.692;6.226;2023-09-19T23:02:49;19.60;95.50
51739;DHT22;37815;52.692;6.226;2023-09-19T23:07:51;19.50;95.40
51739;DHT22;37815;52.692;6.226;2023-09-19T23:12:58;19.50;95.40
51739;DHT22;37815;52.692;6.226;2023-09-19T23:17:58;19.50;95.40
51739;DHT22;37815;52.692;6.226;2023-09-19T23:22:59;19.50;95.50
51739;DHT22;37815;52.692;6.226;2023-09-19T23:28:01;19.50;95.50
51739;DHT22;37815;52.692;6.226;2023-09-19T23:33:04;19.50;95.50
51739;DHT22;37815;52.692;6.226;2023-09-19T23:38:06;19.50;95.50
51739;DHT22;37815;52.692;6.226;2023-09-19T23:43:07;19.50;95.60
51739;DHT22;37815;52.692;6.226;2023-09-19T23:48:10;19.50;95.60
51739;DHT22;37815;52.692;6.226;2023-09-19T23:53:12;19.50;95.60
51739;DHT22;37815;52.692;6.226;2023-09-19T23:58:12;19.50;95.60
